createdAt,value
2017-05-22T00:01:29.253Z,6.20
2017-05-22T00:03:56.620Z,6.28
2017-05-22T00:06:23.964Z,6.52
2017-05-22T00:08:51.406Z,6.60
2017-05-22T00:11:18.758Z,6.76
2017-05-22T00:13:46.138Z,6.62
2017-05-22T00:16:13.461Z,6.10
2017-05-22T00:18:40.826Z,6.48
2017-05-22T00:21:08.285Z,6.36
2017-05-22T00:23:35.741Z,7.40
2017-05-22T00:26:03.098Z,6.50
2017-05-22T00:28:30.551Z,6.72
2017-05-22T00:30:57.993Z,7.06
2017-05-22T00:33:25.230Z,7.44
2017-05-22T00:35:52.622Z,7.50
2017-05-22T00:38:19.959Z,7.20
2017-05-22T00:40:47.509Z,7.30
2017-05-22T00:43:14.821Z,6.20
2017-05-22T00:45:42.138Z,7.70
2017-05-22T00:48:09.446Z,6.80
2017-05-22T00:50:36.834Z,7.02
2017-05-22T00:53:04.394Z,9.08
2017-05-22T00:55:31.730Z,7.96
2017-05-22T00:57:58.997Z,7.20
2017-05-22T01:00:26.441Z,7.48
2017-05-22T01:02:54.007Z,7.68
2017-05-22T01:05:21.417Z,7.08
2017-05-22T01:07:48.814Z,7.22
2017-05-22T01:10:16.272Z,8.12
2017-05-22T01:12:43.717Z,7.84
2017-05-22T01:15:11.199Z,7.32
2017-05-22T01:17:38.651Z,8.00
2017-05-22T01:20:06.237Z,8.72
2017-05-22T01:22:33.547Z,8.00
2017-05-22T01:25:00.869Z,8.18
2017-05-22T01:27:28.245Z,9.20
2017-05-22T01:29:55.713Z,7.82
2017-05-22T01:32:30.050Z,8.32
2017-05-22T01:34:57.375Z,9.20
2017-05-22T01:37:24.861Z,8.28
2017-05-22T01:39:52.312Z,7.44
2017-05-22T01:42:19.882Z,6.90
2017-05-22T01:44:47.339Z,6.82
2017-05-22T01:47:14.664Z,7.78
2017-05-22T01:49:42.234Z,8.32
2017-05-22T01:52:09.599Z,6.96
2017-05-22T01:54:37.129Z,7.52
2017-05-22T01:57:04.377Z,8.08
2017-05-22T01:59:31.833Z,6.70
2017-05-22T02:01:59.278Z,6.70
2017-05-22T02:04:26.640Z,6.78
2017-05-22T02:06:53.998Z,7.14
2017-05-22T02:09:21.469Z,6.34
2017-05-22T02:11:48.906Z,7.60
2017-05-22T02:14:16.383Z,6.12
2017-05-22T02:16:43.714Z,6.36
2017-05-22T02:19:11.184Z,6.92
2017-05-22T02:21:38.566Z,6.30
2017-05-22T02:24:06.009Z,6.88
2017-05-22T02:26:33.406Z,5.96
2017-05-22T02:29:00.682Z,6.42
2017-05-22T02:31:28.020Z,5.40
2017-05-22T02:33:55.393Z,6.60
2017-05-22T02:36:22.650Z,6.36
2017-05-22T02:38:50.114Z,6.04
2017-05-22T02:41:17.684Z,5.82
2017-05-22T02:43:45.226Z,6.08
2017-05-22T02:46:12.679Z,5.94
2017-05-22T02:48:39.993Z,5.84
2017-05-22T02:51:07.380Z,6.74
2017-05-22T02:53:35.049Z,5.80
2017-05-22T02:56:02.494Z,7.46
2017-05-22T02:58:29.865Z,6.16
2017-05-22T03:00:57.199Z,6.00
2017-05-22T03:03:24.777Z,7.12
2017-05-22T03:05:52.311Z,6.26
2017-05-22T03:08:19.982Z,6.68
2017-05-22T03:10:47.235Z,6.48
2017-05-22T03:13:14.678Z,5.66
2017-05-22T03:15:41.887Z,6.90
2017-05-22T03:18:09.182Z,6.26
2017-05-22T03:20:36.577Z,7.24
2017-05-22T03:23:03.979Z,6.72
2017-05-22T03:25:31.361Z,6.00
2017-05-22T03:27:58.933Z,6.34
2017-05-22T03:30:26.289Z,5.82
2017-05-22T03:32:53.748Z,6.50
2017-05-22T03:35:21.311Z,6.30
2017-05-22T03:37:48.833Z,7.08
2017-05-22T03:40:16.085Z,6.52
2017-05-22T03:42:43.338Z,7.20
2017-05-22T03:45:10.802Z,7.50
2017-05-22T03:47:38.150Z,7.56
2017-05-22T03:50:05.617Z,7.42
2017-05-22T03:52:32.946Z,7.34
2017-05-22T03:55:00.397Z,7.80
2017-05-22T03:57:27.658Z,7.66
2017-05-22T03:59:54.913Z,6.56
2017-05-22T04:02:22.244Z,6.50
2017-05-22T04:04:49.923Z,7.30
2017-05-22T04:07:17.383Z,7.40
2017-05-22T04:09:44.854Z,7.98
2017-05-22T04:12:12.278Z,6.64
2017-05-22T04:14:39.619Z,7.14
2017-05-22T04:17:06.758Z,7.32
2017-05-22T04:19:34.253Z,7.16
2017-05-22T04:22:01.594Z,8.46
2017-05-22T04:24:28.917Z,7.58
2017-05-22T04:26:56.410Z,7.38
2017-05-22T04:29:23.702Z,8.12
2017-05-22T04:31:51.118Z,6.92
2017-05-22T04:34:18.481Z,6.82
2017-05-22T04:36:45.810Z,6.76
2017-05-22T04:39:12.957Z,7.58
2017-05-22T04:41:47.918Z,8.52
2017-05-22T04:44:15.421Z,8.28
2017-05-22T04:46:42.737Z,7.80
2017-05-22T04:49:10.150Z,10.08
2017-05-22T04:51:37.422Z,9.64
2017-05-22T04:54:04.894Z,8.48
2017-05-22T04:56:32.328Z,9.36
2017-05-22T04:58:59.678Z,8.36
2017-05-22T05:01:27.146Z,7.94
2017-05-22T05:03:54.706Z,9.20
2017-05-22T05:06:22.154Z,9.12
2017-05-22T05:08:49.412Z,7.92
2017-05-22T05:11:16.845Z,7.44
2017-05-22T05:13:44.243Z,7.12
2017-05-22T05:16:11.689Z,6.52
2017-05-22T05:18:39.198Z,8.62
2017-05-22T05:21:06.678Z,7.24
2017-05-22T05:23:34.137Z,6.54
2017-05-22T05:26:01.620Z,5.80
2017-05-22T05:28:29.038Z,6.66
2017-05-22T05:30:56.435Z,6.30
2017-05-22T05:33:23.967Z,7.04
2017-05-22T05:35:51.469Z,7.60
2017-05-22T05:38:18.759Z,6.68
2017-05-22T05:40:46.450Z,5.86
2017-05-22T05:43:13.831Z,5.10
2017-05-22T05:45:41.321Z,5.56
2017-05-22T05:48:08.703Z,5.92
2017-05-22T05:50:36.020Z,5.30
2017-05-22T05:53:03.302Z,5.38
2017-05-22T05:55:30.867Z,5.68
2017-05-22T05:57:58.221Z,5.26
2017-05-22T06:00:25.725Z,5.04
2017-05-22T06:02:53.072Z,5.70
2017-05-22T06:05:20.557Z,6.48
2017-05-22T06:07:47.862Z,4.56
2017-05-22T06:10:15.362Z,4.76
2017-05-22T06:12:42.926Z,4.52
2017-05-22T06:15:10.287Z,4.72
2017-05-22T06:17:37.542Z,4.72
2017-05-22T06:20:04.877Z,4.66
2017-05-22T06:22:32.337Z,4.38
2017-05-22T06:24:59.741Z,4.58
2017-05-22T06:27:27.164Z,4.54
2017-05-22T06:29:54.665Z,4.16
2017-05-22T06:32:22.098Z,4.84
2017-05-22T06:34:49.553Z,4.02
2017-05-22T06:37:17.009Z,4.12
2017-05-22T06:39:44.344Z,4.58
2017-05-22T06:42:11.457Z,4.48
2017-05-22T06:44:38.678Z,4.28
2017-05-22T06:47:05.953Z,3.90
2017-05-22T06:49:33.357Z,3.92
2017-05-22T06:52:00.741Z,3.18
2017-05-22T06:54:28.165Z,3.02
2017-05-22T06:56:55.483Z,3.00
2017-05-22T06:59:22.868Z,3.30
2017-05-22T07:01:50.219Z,3.08
2017-05-22T07:04:17.778Z,3.44
2017-05-22T07:06:45.241Z,2.66
2017-05-22T07:09:12.711Z,3.66
2017-05-22T07:11:40.018Z,3.26
2017-05-22T07:14:07.444Z,3.54
2017-05-22T07:16:34.753Z,3.36
2017-05-22T07:19:02.114Z,3.14
2017-05-22T07:21:29.665Z,2.76
2017-05-22T07:23:56.984Z,3.02
2017-05-22T07:26:24.157Z,3.00
2017-05-22T07:28:51.719Z,3.00
2017-05-22T07:31:19.214Z,2.66
2017-05-22T07:33:53.242Z,2.90
2017-05-22T07:36:20.372Z,2.98
2017-05-22T07:38:47.382Z,2.80
2017-05-22T07:41:14.381Z,2.78
2017-05-22T07:43:41.434Z,2.96
2017-05-22T07:46:08.422Z,2.94
2017-05-22T07:48:35.438Z,3.00
2017-05-22T07:51:02.438Z,2.78
2017-05-22T07:53:29.506Z,2.92
2017-05-22T07:55:56.509Z,2.94
2017-05-22T07:58:23.514Z,2.86
2017-05-22T08:00:50.510Z,2.68
2017-05-22T08:03:17.838Z,2.98
2017-05-22T08:05:45.078Z,3.00
2017-05-22T08:08:12.339Z,2.86
2017-05-22T08:10:39.715Z,2.72
2017-05-22T08:13:07.146Z,2.94
2017-05-22T08:15:34.617Z,2.58
2017-05-22T08:18:01.859Z,2.86
2017-05-22T08:20:29.333Z,2.82
2017-05-22T08:22:56.870Z,3.00
2017-05-22T08:25:24.145Z,3.02
2017-05-22T08:27:51.401Z,2.62
2017-05-22T08:30:18.635Z,3.00
2017-05-22T08:32:46.213Z,2.76
2017-05-22T08:35:13.642Z,2.96
2017-05-22T08:37:41.146Z,3.18
2017-05-22T08:40:08.662Z,2.76
2017-05-22T08:42:36.105Z,2.66
2017-05-22T08:45:03.590Z,2.88
2017-05-22T08:47:31.020Z,3.02
2017-05-22T08:49:58.349Z,2.50
2017-05-22T08:52:25.617Z,2.56
2017-05-22T08:54:53.126Z,2.68
2017-05-22T08:57:20.505Z,2.56
2017-05-22T08:59:47.798Z,2.22
2017-05-22T09:02:15.246Z,2.30
2017-05-22T09:04:42.540Z,2.78
2017-05-22T09:07:09.890Z,2.72
2017-05-22T09:09:37.319Z,1.82
2017-05-22T09:12:04.650Z,2.10
2017-05-22T09:14:32.117Z,2.14
2017-05-22T09:16:59.469Z,2.44
2017-05-22T09:19:26.784Z,2.78
2017-05-22T09:21:54.271Z,2.32
2017-05-22T09:24:21.547Z,1.84
2017-05-22T09:26:48.982Z,1.88
2017-05-22T09:29:16.554Z,1.72
2017-05-22T09:31:43.982Z,1.74
2017-05-22T09:34:11.449Z,1.90
2017-05-22T09:36:38.881Z,1.70
2017-05-22T09:39:06.270Z,1.98
2017-05-22T09:41:33.482Z,1.82
2017-05-22T09:44:07.873Z,2.04
2017-05-22T09:46:34.870Z,2.02
2017-05-22T09:49:01.919Z,1.86
2017-05-22T09:51:28.907Z,1.54
2017-05-22T09:53:55.915Z,1.44
2017-05-22T09:56:22.915Z,1.60
2017-05-22T09:58:49.905Z,1.96
2017-05-22T10:01:16.897Z,2.62
2017-05-22T10:03:43.878Z,1.62
2017-05-22T10:06:10.890Z,1.50
2017-05-22T10:08:37.891Z,1.74
2017-05-22T10:11:05.339Z,1.84
2017-05-22T10:13:32.355Z,2.00
2017-05-22T10:15:59.731Z,1.90
2017-05-22T10:18:27.034Z,2.18
2017-05-22T10:20:54.307Z,1.72
2017-05-22T10:23:21.687Z,1.82
2017-05-22T10:25:48.942Z,1.76
2017-05-22T10:28:16.421Z,1.72
2017-05-22T10:30:43.566Z,1.80
2017-05-22T10:33:10.891Z,2.10
2017-05-22T10:35:38.166Z,2.00
2017-05-22T10:38:05.593Z,1.90
2017-05-22T10:40:32.946Z,1.94
2017-05-22T10:43:00.405Z,2.10
2017-05-22T10:45:27.778Z,2.40
2017-05-22T10:47:55.320Z,2.06
2017-05-22T10:50:22.381Z,2.10
2017-05-22T10:52:49.747Z,2.38
2017-05-22T10:55:17.161Z,1.70
2017-05-22T10:57:44.555Z,2.50
2017-05-22T11:00:11.913Z,2.30
2017-05-22T11:02:39.262Z,2.08
2017-05-22T11:05:06.518Z,1.98
2017-05-22T11:07:33.769Z,2.32
2017-05-22T11:10:00.990Z,1.92
2017-05-22T11:12:28.274Z,2.30
2017-05-22T11:14:55.523Z,2.46
2017-05-22T11:17:22.805Z,2.80
2017-05-22T11:19:50.042Z,2.54
2017-05-22T11:22:17.206Z,2.58
2017-05-22T11:24:44.477Z,2.22
2017-05-22T11:27:11.705Z,9.50
2017-05-22T11:29:38.926Z,2.96
2017-05-22T11:32:06.165Z,2.22
2017-05-22T11:34:33.390Z,1.86
2017-05-22T11:37:00.622Z,2.34
2017-05-22T11:39:27.850Z,2.56
2017-05-22T11:41:55.299Z,2.44
2017-05-22T11:44:22.637Z,2.22
2017-05-22T11:46:50.087Z,2.24
2017-05-22T11:49:17.548Z,2.42
2017-05-22T11:51:44.874Z,2.76
2017-05-22T11:54:12.177Z,1.86
2017-05-22T11:56:39.386Z,2.16
2017-05-22T11:59:06.629Z,2.40
2017-05-22T12:01:33.862Z,2.02
2017-05-22T12:04:01.126Z,2.00
2017-05-22T12:06:28.427Z,2.28
2017-05-22T12:08:55.963Z,2.46
2017-05-22T12:11:23.222Z,2.22
2017-05-22T12:13:50.445Z,2.20
2017-05-22T12:16:17.629Z,2.24
2017-05-22T12:18:44.813Z,2.16
2017-05-22T12:21:12.077Z,2.90
2017-05-22T12:23:39.311Z,2.00
2017-05-22T12:26:06.586Z,2.22
2017-05-22T12:28:33.839Z,2.74
2017-05-22T12:31:01.029Z,2.10
2017-05-22T12:33:28.254Z,2.30
2017-05-22T12:35:55.469Z,2.26
2017-05-22T12:38:22.711Z,2.46
2017-05-22T12:40:49.945Z,2.28
2017-05-22T12:43:17.215Z,2.40
2017-05-22T12:45:44.437Z,2.18
2017-05-22T12:48:11.865Z,2.00
2017-05-22T12:50:39.386Z,2.56
2017-05-22T12:53:06.782Z,2.28
2017-05-22T12:55:34.223Z,2.12
2017-05-22T12:58:01.596Z,2.42
2017-05-22T13:00:28.745Z,2.76
2017-05-22T13:02:56.144Z,2.60
2017-05-22T13:05:23.558Z,2.70
2017-05-22T13:32:50.731Z,2.62
2017-05-22T13:35:17.754Z,3.06
2017-05-22T13:37:44.782Z,3.34
2017-05-22T13:40:11.856Z,3.36
2017-05-22T13:42:39.004Z,2.84
2017-05-22T13:45:07.141Z,3.58
2017-05-22T13:47:34.637Z,3.32
2017-05-22T13:50:02.638Z,2.78
2017-05-22T13:52:30.660Z,3.32
2017-05-22T13:54:57.730Z,4.00
2017-05-22T13:57:24.813Z,4.40
2017-05-22T13:59:51.890Z,3.92
2017-05-22T14:02:19.037Z,3.10
2017-05-22T14:04:45.790Z,2.80
2017-05-22T14:07:13.136Z,3.12
2017-05-22T14:09:40.540Z,3.52
2017-05-22T14:12:07.795Z,3.20
2017-05-22T14:14:35.048Z,3.86
2017-05-22T14:17:02.178Z,3.28
2017-05-22T14:19:29.738Z,3.30
2017-05-22T14:21:57.770Z,3.06
2017-05-22T14:24:25.765Z,3.18
2017-05-22T14:26:53.401Z,3.60
2017-05-22T14:29:20.416Z,4.58
2017-05-22T14:31:48.315Z,4.86
2017-05-22T14:34:15.698Z,3.40
2017-05-22T14:36:42.756Z,3.30
2017-05-22T14:39:09.767Z,3.62
2017-05-22T14:41:36.849Z,3.38
2017-05-22T14:44:04.309Z,3.16
2017-05-22T14:46:31.338Z,4.14
2017-05-22T14:48:59.124Z,3.16
2017-05-22T14:51:26.193Z,3.40
2017-05-22T14:53:54.194Z,3.62
2017-05-22T14:56:21.243Z,4.00
2017-05-22T14:58:49.052Z,4.34
2017-05-22T15:01:16.080Z,4.62
2017-05-22T15:03:42.735Z,4.20
2017-05-22T15:06:09.399Z,3.24
2017-05-22T15:08:36.481Z,3.84
2017-05-22T15:11:03.581Z,4.94
2017-05-22T15:13:30.603Z,3.58
2017-05-22T15:15:57.650Z,3.30
2017-05-22T15:18:24.286Z,3.92
2017-05-22T15:20:51.383Z,2.86
2017-05-22T15:23:18.119Z,4.04
2017-05-22T15:25:46.125Z,3.76
2017-05-22T15:28:14.118Z,4.44
2017-05-22T15:30:41.131Z,4.68
2017-05-22T15:33:08.904Z,4.54
2017-05-22T15:35:36.022Z,3.50
2017-05-22T15:38:03.032Z,5.24
2017-05-22T15:40:30.051Z,3.08
2017-05-22T15:42:57.094Z,3.94
2017-05-22T15:45:25.090Z,3.64
2017-05-22T15:47:53.113Z,3.62
2017-05-22T15:50:21.120Z,4.44
2017-05-22T15:52:48.874Z,3.90
2017-05-22T15:55:17.000Z,5.80
2017-05-22T15:57:45.015Z,4.26
2017-05-22T16:00:13.072Z,4.76
2017-05-22T16:02:41.095Z,5.02
2017-05-22T16:05:07.870Z,5.16
2017-05-22T16:07:36.369Z,4.24
2017-05-22T16:10:03.809Z,4.84
2017-05-22T16:12:30.918Z,3.64
2017-05-22T16:14:58.915Z,3.84
2017-05-22T16:17:26.927Z,4.52
2017-05-22T16:19:54.931Z,3.78
2017-05-22T16:22:22.724Z,4.20
2017-05-22T16:24:50.737Z,4.34
2017-05-22T16:27:18.831Z,3.50
2017-05-22T16:29:45.855Z,4.60
2017-05-22T16:32:12.518Z,4.42
2017-05-22T16:34:40.532Z,4.02
2017-05-22T16:37:07.619Z,3.36
2017-05-22T16:39:34.642Z,3.70
2017-05-22T16:42:02.457Z,4.02
2017-05-22T16:44:30.485Z,3.72
2017-05-22T16:46:57.134Z,3.32
2017-05-22T16:49:24.914Z,4.34
2017-05-22T16:51:52.993Z,4.04
2017-05-22T16:54:20.829Z,3.86
2017-05-22T16:56:48.887Z,3.48
2017-05-22T16:59:15.550Z,4.22
2017-05-22T17:01:43.572Z,4.92
2017-05-22T17:04:10.714Z,5.26
2017-05-22T17:06:37.410Z,3.42
2017-05-22T17:09:04.831Z,4.52
2017-05-22T17:11:31.883Z,4.06
2017-05-22T17:13:59.288Z,3.38
2017-05-22T17:16:26.309Z,3.02
2017-05-22T17:18:53.362Z,3.64
2017-05-22T17:21:20.484Z,3.50
2017-05-22T17:23:47.502Z,3.40
2017-05-22T17:26:14.550Z,3.24
2017-05-22T17:28:42.566Z,2.86
2017-05-22T17:31:09.958Z,4.26
2017-05-22T17:33:36.989Z,4.04
2017-05-22T17:36:04.193Z,4.70
2017-05-22T17:38:30.959Z,4.52
2017-05-22T17:40:58.414Z,3.48
2017-05-22T17:43:25.079Z,3.74
2017-05-22T17:45:52.194Z,3.94
2017-05-22T17:48:19.616Z,4.22
2017-05-22T17:50:47.641Z,4.00
2017-05-22T17:53:14.674Z,3.84
2017-05-22T17:55:41.690Z,3.22
2017-05-22T17:58:09.686Z,3.10
2017-05-22T18:00:37.723Z,4.10
2017-05-22T18:03:04.403Z,4.04
2017-05-22T18:05:31.067Z,4.32
2017-05-22T18:07:58.091Z,4.78
2017-05-22T18:10:25.112Z,4.00
2017-05-22T18:12:52.533Z,3.46
2017-05-22T18:15:19.546Z,2.94
2017-05-22T18:17:46.208Z,3.60
2017-05-22T18:20:13.235Z,3.64
2017-05-22T18:22:39.948Z,3.82
2017-05-22T18:25:06.964Z,4.10
2017-05-22T18:27:34.078Z,3.70
2017-05-22T18:30:01.088Z,3.00
2017-05-22T18:32:29.106Z,3.80
2017-05-22T18:34:57.079Z,3.54
2017-05-22T18:37:24.103Z,4.52
2017-05-22T18:39:50.771Z,3.90
2017-05-22T18:42:18.772Z,4.40
2017-05-22T18:44:45.804Z,3.08
2017-05-22T18:47:12.822Z,4.28
2017-05-22T18:49:39.895Z,3.96
2017-05-22T18:52:07.079Z,3.74
2017-05-22T18:54:33.856Z,3.84
2017-05-22T18:57:01.755Z,3.72
2017-05-22T18:59:28.812Z,4.26
2017-05-22T19:01:56.272Z,3.82
2017-05-22T19:04:24.555Z,3.62
2017-05-22T19:06:53.606Z,4.20
2017-05-22T19:09:20.239Z,4.92
2017-05-22T19:11:47.310Z,4.04
2017-05-22T19:14:14.407Z,4.38
2017-05-22T19:16:41.727Z,3.94
2017-05-22T19:19:09.117Z,3.80
2017-05-22T19:21:37.147Z,3.38
2017-05-22T19:24:04.850Z,3.84
2017-05-22T19:26:32.567Z,3.46
2017-05-22T19:29:00.851Z,3.58
2017-05-22T19:31:29.085Z,3.84
2017-05-22T19:33:57.298Z,3.54
2017-05-22T19:36:25.317Z,3.62
2017-05-22T19:38:53.334Z,4.40
2017-05-22T19:41:21.347Z,5.20
2017-05-22T19:43:49.118Z,3.66
2017-05-22T19:46:16.617Z,4.06
2017-05-22T19:48:44.649Z,4.04
2017-05-22T19:51:12.651Z,4.66
2017-05-22T19:53:39.310Z,4.58
2017-05-22T19:56:07.079Z,4.60
2017-05-22T19:58:35.066Z,4.32
2017-05-22T20:01:02.102Z,4.20
2017-05-22T20:03:30.093Z,3.78
2017-05-22T20:05:58.134Z,3.76
2017-05-22T20:08:24.877Z,4.82
2017-05-22T20:10:59.543Z,4.52
2017-05-22T20:13:26.345Z,4.00
2017-05-22T20:16:00.347Z,4.16
2017-05-22T20:18:28.407Z,4.54
2017-05-22T20:20:55.287Z,4.40
2017-05-22T20:23:23.089Z,4.24
2017-05-22T20:25:51.281Z,4.14
2017-05-22T20:28:19.325Z,4.06
2017-05-22T20:30:47.358Z,4.40
2017-05-22T20:33:15.361Z,5.00
2017-05-22T20:35:42.774Z,5.20
2017-05-22T20:38:10.809Z,4.32
2017-05-22T20:40:37.814Z,4.14
2017-05-22T20:43:05.294Z,4.62
2017-05-22T20:45:33.138Z,4.38
2017-05-22T20:48:01.186Z,3.90
2017-05-22T20:50:29.267Z,4.30
2017-05-22T20:52:55.928Z,5.24
2017-05-22T20:55:23.962Z,4.14
2017-05-22T20:57:51.978Z,5.12
2017-05-22T21:00:20.008Z,4.62
2017-05-22T21:02:48.134Z,5.16
2017-05-22T21:05:15.266Z,5.12
2017-05-22T21:07:41.914Z,4.68
2017-05-22T21:10:09.308Z,4.30
2017-05-22T21:12:36.418Z,4.32
2017-05-22T21:15:03.830Z,4.66
2017-05-22T21:17:32.385Z,4.78
2017-05-22T21:20:00.346Z,4.74
2017-05-22T21:22:27.438Z,3.92
2017-05-22T21:24:55.479Z,6.76
2017-05-22T21:27:23.647Z,5.14
2017-05-22T21:29:51.667Z,5.92
2017-05-22T21:32:19.666Z,5.26
2017-05-22T21:34:47.702Z,5.46
2017-05-22T21:37:14.709Z,5.40
2017-05-22T21:39:42.121Z,4.56
2017-05-22T21:42:09.291Z,4.94
2017-05-22T21:44:36.721Z,4.84
2017-05-22T21:47:04.485Z,4.34
2017-05-22T21:49:31.145Z,4.80
2017-05-22T21:51:59.154Z,4.58
2017-05-22T21:54:26.182Z,4.94
2017-05-22T21:56:53.594Z,5.00
2017-05-22T21:59:21.581Z,4.78
2017-05-22T22:01:48.712Z,6.08
2017-05-22T22:04:16.093Z,6.50
2017-05-22T22:06:43.497Z,5.58
2017-05-22T22:09:11.532Z,4.72
2017-05-22T22:11:38.182Z,5.26
2017-05-22T22:14:05.590Z,4.52
2017-05-22T22:16:33.585Z,5.00
2017-05-22T22:19:00.585Z,5.66
2017-05-22T22:21:27.606Z,5.70
2017-05-22T22:23:54.624Z,5.66
2017-05-22T22:26:22.133Z,6.02
2017-05-22T22:28:49.192Z,5.74
2017-05-22T22:31:17.206Z,5.28
2017-05-22T22:33:44.269Z,6.42
2017-05-22T22:36:11.434Z,6.18
2017-05-22T22:38:38.854Z,6.68
2017-05-22T22:41:05.883Z,6.18
2017-05-22T22:43:32.895Z,5.72
2017-05-22T22:45:59.907Z,5.98
2017-05-22T22:48:27.897Z,5.70
2017-05-22T22:50:54.953Z,6.62
2017-05-22T22:53:21.966Z,6.14
2017-05-22T22:55:48.972Z,6.46
2017-05-22T22:58:15.636Z,5.76
2017-05-22T23:00:42.276Z,6.26
2017-05-22T23:03:10.325Z,6.20
2017-05-22T23:05:37.335Z,7.80
2017-05-22T23:08:05.367Z,6.82
2017-05-22T23:10:32.398Z,6.60
2017-05-22T23:13:00.178Z,6.82
2017-05-22T23:15:26.822Z,8.22
2017-05-22T23:17:53.454Z,6.70
2017-05-22T23:20:21.448Z,5.64
2017-05-22T23:22:48.088Z,6.54
2017-05-22T23:25:15.103Z,6.90
2017-05-22T23:27:42.129Z,7.84
2017-05-22T23:30:09.148Z,6.96
2017-05-22T23:32:36.564Z,6.52
2017-05-22T23:35:04.561Z,6.68
2017-05-22T23:37:31.574Z,6.92
2017-05-22T23:39:58.609Z,7.26
2017-05-22T23:42:26.602Z,7.10
2017-05-22T23:44:53.650Z,7.06
2017-05-22T23:47:20.701Z,5.72
2017-05-22T23:49:48.170Z,5.74
2017-05-22T23:52:16.158Z,5.72
2017-05-22T23:54:43.172Z,6.14
2017-05-22T23:57:11.202Z,6.60
2017-05-22T23:59:38.224Z,6.98
